Kurpie — C6XM4 — position and weather

sailwx.info

Track history (hours):
 
Tides and Currents Weather Stations Pressure Air Temp Water Temp Dewpoint Dewpoint Depression Visibility Wind Speed Wind Dir Waves Ship Positions

Kurpie

Last reported at 2018-Feb-22 01:48 UTC. Time now 2018-Feb-25 14:11 UTC.
Position N 27°46' W 015°20'.

Length 190 m; draft 6.2 m.

Type: Cargo ship. MMSI: 311013900.

Date/timePositionNaut miles runAvg speedWind from/ knotsBaromVisibWave heightAir tempDewpointWater temp
2018-Feb-22 01:48N 27°46' W 015°20'413.9
2018-Feb-22 01:30N 27°49' W 015°18'713.6
2018-Feb-22 01:00N 27°56' W 015°16'713.7
2018-Feb-22 00:30N 28°03' W 015°17'612.7
2018-Feb-22 00:00N 28°07' W 015°22'2 3.3
2018-Feb-21 23:30N 28°06' W 015°24'0 0.0
2018-Feb-21 23:00N 28°06' W 015°24'0 0.1
2018-Feb-21 22:30N 28°06' W 015°24'0 0.0
2018-Feb-21 22:00N 28°06' W 015°24'0 0.0
2018-Feb-21 21:30N 28°06' W 015°24'0 0.0
2018-Feb-21 21:00N 28°06' W 015°24'0 0.1
2018-Feb-21 20:30N 28°06' W 015°24'0 0.1
2018-Feb-21 20:00N 28°06' W 015°24'0 0.0
2018-Feb-21 19:21N 28°06' W 015°24'0 0.0
2018-Feb-21 18:51N 28°06' W 015°24'0 0.1
2018-Feb-21 18:21N 28°06' W 015°24'0 0.0
2018-Feb-21 17:54N 28°06' W 015°24'0 0.1
2018-Feb-21 17:24N 28°06' W 015°24'0 0.1
2018-Feb-21 16:54N 28°06' W 015°24'0 0.0
2018-Feb-21 16:24N 28°06' W 015°24'0 0.1
2018-Feb-21 15:54N 28°06' W 015°24'0 0.1
2018-Feb-21 15:27N 28°06' W 015°24'0 0.1
2018-Feb-21 14:57N 28°06' W 015°24'0 0.0
2018-Feb-21 14:27N 28°06' W 015°24'0 0.1
2018-Feb-21 13:42N 28°06' W 015°24'0 0.1
2018-Feb-21 13:30N 28°06' W 015°24'0 0.1
2018-Feb-21 13:00N 28°06' W 015°24'0 0.1
2018-Feb-21 12:30N 28°06' W 015°24'1 1.3
2018-Feb-21 12:00N 28°07' W 015°24'3 5.1
2018-Feb-21 11:30N 28°08' W 015°21'4 8.7
2018-Feb-21 11:00N 28°12' W 015°18'612.0
2018-Feb-21 10:30N 28°16' W 015°14'612.2
2018-Feb-21 10:01N 28°21' W 015°09'612.2
2018-Feb-21 09:31N 28°25' W 015°04'611.7
2018-Feb-21 09:00N 28°29' W 014°60'611.5
2018-Feb-21 08:30N 28°34' W 014°55'611.7
2018-Feb-21 08:00N 28°38' W 014°51'  
2018-Feb-12 04:05N 35°57' W 005°42'3 7.7
2018-Feb-12 03:39N 35°57' W 005°38'2 7.7
2018-Feb-12 03:27N 35°57' W 005°36'3 7.4
2018-Feb-12 03:00N 35°59' W 005°32'4 7.9
2018-Feb-12 02:30N 36°00' W 005°28'4 8.2
2018-Feb-12 02:00N 36°02' W 005°23'  
Track history (hours):
 
Tides and Currents Weather Stations Pressure Air Temp Water Temp Dewpoint Dewpoint Depression Visibility Wind Speed Wind Dir Waves Ship Positions

Kurpie

Last reported at 2018-Feb-22 01:48 UTC. Time now 2018-Feb-25 14:11 UTC.
Position N 27°46' W 015°20'.

Length 190 m; draft 6.2 m.

Type: Cargo ship. MMSI: 311013900.

Date/timePositionNaut miles runAvg speedWind from/ knotsBaromVisibWave heightAir tempDewpointWater temp
2018-Feb-22 01:48N 27°46' W 015°20'413.9
2018-Feb-22 01:30N 27°49' W 015°18'713.6
2018-Feb-22 01:00N 27°56' W 015°16'713.7
2018-Feb-22 00:30N 28°03' W 015°17'612.7
2018-Feb-22 00:00N 28°07' W 015°22'2 3.3
2018-Feb-21 23:30N 28°06' W 015°24'0 0.0
2018-Feb-21 23:00N 28°06' W 015°24'0 0.1
2018-Feb-21 22:30N 28°06' W 015°24'0 0.0
2018-Feb-21 22:00N 28°06' W 015°24'0 0.0
2018-Feb-21 21:30N 28°06' W 015°24'0 0.0
2018-Feb-21 21:00N 28°06' W 015°24'0 0.1
2018-Feb-21 20:30N 28°06' W 015°24'0 0.1
2018-Feb-21 20:00N 28°06' W 015°24'0 0.0
2018-Feb-21 19:21N 28°06' W 015°24'0 0.0
2018-Feb-21 18:51N 28°06' W 015°24'0 0.1
2018-Feb-21 18:21N 28°06' W 015°24'0 0.0
2018-Feb-21 17:54N 28°06' W 015°24'0 0.1
2018-Feb-21 17:24N 28°06' W 015°24'0 0.1
2018-Feb-21 16:54N 28°06' W 015°24'0 0.0
2018-Feb-21 16:24N 28°06' W 015°24'0 0.1
2018-Feb-21 15:54N 28°06' W 015°24'0 0.1
2018-Feb-21 15:27N 28°06' W 015°24'0 0.1
2018-Feb-21 14:57N 28°06' W 015°24'0 0.0
2018-Feb-21 14:27N 28°06' W 015°24'0 0.1
2018-Feb-21 13:42N 28°06' W 015°24'0 0.1
2018-Feb-21 13:30N 28°06' W 015°24'0 0.1
2018-Feb-21 13:00N 28°06' W 015°24'0 0.1
2018-Feb-21 12:30N 28°06' W 015°24'1 1.3
2018-Feb-21 12:00N 28°07' W 015°24'3 5.1
2018-Feb-21 11:30N 28°08' W 015°21'4 8.7
2018-Feb-21 11:00N 28°12' W 015°18'612.0
2018-Feb-21 10:30N 28°16' W 015°14'612.2
2018-Feb-21 10:01N 28°21' W 015°09'612.2
2018-Feb-21 09:31N 28°25' W 015°04'611.7
2018-Feb-21 09:00N 28°29' W 014°60'611.5
2018-Feb-21 08:30N 28°34' W 014°55'611.7
2018-Feb-21 08:00N 28°38' W 014°51'  
2018-Feb-12 04:05N 35°57' W 005°42'3 7.7
2018-Feb-12 03:39N 35°57' W 005°38'2 7.7
2018-Feb-12 03:27N 35°57' W 005°36'3 7.4
2018-Feb-12 03:00N 35°59' W 005°32'4 7.9
2018-Feb-12 02:30N 36°00' W 005°28'4 8.2
2018-Feb-12 02:00N 36°02' W 005°23'  

Dump ship's entire track history